Time;durP1;ratioP1;P1;durP2;ratioP2;P2;SDS_P1;SDS_P2;PMS_P1;PMS_P2;Temp;Humidity;BMP_temperature;BMP_pressure;BME280_temperature;BME280_humidity;BME280_pressure;Samples;Min_cycle;Max_cycle;Signal;HPM_P1;HPM_P2
2024/01/04 00:02:30;;;;;;;14.38;12.82;;;;;;;;;;6302917;22;20041;-90
2024/01/04 00:05:14;;;;;;;13.70;12.30;;;;;;;;;;6300404;22;19997;-91
2024/01/04 02:57:12;;;;;;;48.30;43.72;;;;;;;;;;6179822;22;19997;-89
2024/01/04 03:07:22;;;;;;;42.70;38.78;;;;;;;;;;6177708;22;20016;-90
2024/01/04 03:10:07;;;;;;;44.28;40.25;;;;;;;;;;6156063;23;20024;-90
2024/01/04 03:12:55;;;;;;;40.60;36.67;;;;;;;;;;6154494;23;20025;-91
2024/01/04 03:15:57;;;;;;;39.40;35.58;;;;;;;;;;6154666;23;20047;-89
2024/01/04 03:18:51;;;;;;;39.22;35.92;;;;;;;;;;6175698;23;20024;-91
2024/01/04 03:21:40;;;;;;;39.05;36.00;;;;;;;;;;6174299;23;20029;-90
2024/01/04 03:24:32;;;;;;;37.40;34.63;;;;;;;;;;6150369;23;20044;-90
2024/01/04 03:27:17;;;;;;;40.60;37.40;;;;;;;;;;6172367;23;20047;-89
2024/01/04 03:30:01;;;;;;;40.20;37.10;;;;;;;;;;6149564;23;20021;-90
2024/01/04 03:32:48;;;;;;;45.30;42.00;;;;;;;;;;6152063;23;20021;-90
2024/01/04 03:35:36;;;;;;;44.05;40.65;;;;;;;;;;6151895;23;20063;-89
2024/01/04 03:38:23;;;;;;;42.08;38.90;;;;;;;;;;6130463;23;20060;-89
2024/01/04 03:41:22;;;;;;;42.40;39.15;;;;;;;;;;6150399;23;20101;-90
2024/01/04 03:44:27;;;;;;;41.35;37.97;;;;;;;;;;6130941;23;20025;-90
2024/01/04 03:47:11;;;;;;;43.22;40.13;;;;;;;;;;6172434;23;20036;-89
2024/01/04 03:49:58;;;;;;;42.13;38.92;;;;;;;;;;6147177;23;20016;-90
2024/01/04 03:52:46;;;;;;;40.50;37.63;;;;;;;;;;6147659;23;20055;-89
2024/01/04 03:55:38;;;;;;;37.70;34.85;;;;;;;;;;6145496;23;20024;-89
2024/01/04 03:58:22;;;;;;;35.00;32.15;;;;;;;;;;6145110;23;20027;-90
2024/01/04 04:01:09;;;;;;;31.08;29.00;;;;;;;;;;6146943;23;20044;-90
2024/01/04 04:03:56;;;;;;;30.27;27.88;;;;;;;;;;6148989;23;20083;-90
2024/01/04 04:06:40;;;;;;;32.17;30.08;;;;;;;;;;6150054;23;20021;-90
2024/01/04 04:09:26;;;;;;;29.05;27.23;;;;;;;;;;6150153;23;20020;-89
2024/01/04 04:12:13;;;;;;;32.88;30.15;;;;;;;;;;6151094;23;20027;-89
2024/01/04 04:15:02;;;;;;;29.70;27.90;;;;;;;;;;6149859;23;20075;-90
2024/01/04 04:17:49;;;;;;;30.35;28.55;;;;;;;;;;6151096;23;20048;-89
2024/01/04 04:20:51;;;;;;;32.10;30.20;;;;;;;;;;6150280;23;20036;-89
2024/01/04 04:23:38;;;;;;;35.47;33.13;;;;;;;;;;6149641;23;20021;-90
2024/01/04 04:26:26;;;;;;;36.08;33.40;;;;;;;;;;6149003;23;20021;-89
2024/01/04 04:29:11;;;;;;;38.55;36.35;;;;;;;;;;6170096;23;20020;-90
2024/01/04 04:31:55;;;;;;;40.33;37.72;;;;;;;;;;6150107;23;20461;-90
2024/01/04 04:34:40;;;;;;;44.45;41.15;;;;;;;;;;6150942;23;20048;-90
2024/01/04 04:37:27;;;;;;;45.05;42.05;;;;;;;;;;6149362;23;20024;-90
2024/01/04 04:40:14;;;;;;;45.42;42.22;;;;;;;;;;6150462;23;20095;-89
2024/01/04 04:42:59;;;;;;;48.55;44.75;;;;;;;;;;6151273;23;20025;-89
2024/01/04 04:45:44;;;;;;;50.40;46.13;;;;;;;;;;6150662;23;20024;-90
2024/01/04 04:48:32;;;;;;;49.95;45.95;;;;;;;;;;6150906;23;20088;-90
2024/01/04 04:51:21;;;;;;;51.42;47.60;;;;;;;;;;6131170;23;20043;-90
2024/01/04 04:54:05;;;;;;;48.65;45.17;;;;;;;;;;6150522;23;20043;-89
2024/01/04 04:56:56;;;;;;;47.13;43.72;;;;;;;;;;6152067;23;20116;-89
2024/01/04 04:59:41;;;;;;;47.22;43.58;;;;;;;;;;6152334;23;20016;-89
2024/01/04 05:02:26;;;;;;;48.92;45.60;;;;;;;;;;6151057;23;20078;-89
2024/01/04 05:05:12;;;;;;;46.15;42.55;;;;;;;;;;6152806;23;20045;-89
2024/01/04 05:07:56;;;;;;;44.95;41.63;;;;;;;;;;6151677;23;20041;-90
2024/01/04 05:10:44;;;;;;;47.78;44.28;;;;;;;;;;6151203;23;20017;-89
2024/01/04 05:13:44;;;;;;;43.53;40.15;;;;;;;;;;6150710;23;20021;-89
2024/01/04 05:53:25;;;;;;;45.72;41.58;;;;;;;;;;6191340;23;20078;-89
2024/01/04 05:56:42;;;;;;;49.53;45.60;;;;;;;;;;6124132;23;20020;-89
2024/01/04 06:10:20;;;;;;;51.63;48.20;;;;;;;;;;6147112;23;20017;-90
2024/01/04 06:13:21;;;;;;;54.85;50.85;;;;;;;;;;6138035;23;20069;-89
2024/01/04 06:16:29;;;;;;;54.42;50.80;;;;;;;;;;6128769;23;20044;-89
2024/01/04 06:23:17;;;;;;;53.13;49.90;;;;;;;;;;6148147;23;20039;-90
2024/01/04 06:33:17;;;;;;;54.58;51.15;;;;;;;;;;6148774;23;20078;-90
2024/01/04 06:36:17;;;;;;;54.47;51.15;;;;;;;;;;6147723;23;20007;-90
2024/01/04 06:53:25;;;;;;;50.95;47.38;;;;;;;;;;6216736;23;20100;-90
2024/01/04 07:05:46;;;;;;;54.90;50.83;;;;;;;;;;6202840;22;20063;-90
2024/01/04 07:23:19;;;;;;;50.70;47.40;;;;;;;;;;6145194;22;20059;-90
2024/01/04 07:33:41;;;;;;;52.10;48.97;;;;;;;;;;6176825;23;20011;-89
2024/01/04 08:08:15;;;;;;;48.45;45.50;;;;;;;;;;6229448;22;20031;-90
2024/01/04 08:11:02;;;;;;;47.67;44.22;;;;;;;;;;6303165;22;20037;-90
2024/01/04 08:13:58;;;;;;;43.75;40.70;;;;;;;;;;6303448;22;20011;-90
2024/01/04 08:35:26;;;;;;;46.95;44.00;;;;;;;;;;6315392;22;20014;-89
2024/01/04 08:42:16;;;;;;;47.97;45.25;;;;;;;;;;6299859;22;20085;-89
2024/01/04 08:48:10;;;;;;;45.92;42.85;;;;;;;;;;6298532;22;19898;-89
2024/01/04 08:50:57;;;;;;;48.25;45.28;;;;;;;;;;6277232;22;20405;-90
2024/01/04 09:04:20;;;;;;;50.90;47.10;;;;;;;;;;6289767;22;20075;-89
2024/01/04 09:07:09;;;;;;;52.40;48.92;;;;;;;;;;6270958;22;20466;-89
2024/01/04 09:09:53;;;;;;;51.90;48.78;;;;;;;;;;6258938;23;20054;-89
2024/01/04 09:12:39;;;;;;;55.72;52.55;;;;;;;;;;6264571;23;20019;-89
2024/01/04 09:15:25;;;;;;;51.45;48.28;;;;;;;;;;6257455;23;20024;-89
2024/01/04 09:18:17;;;;;;;52.25;48.85;;;;;;;;;;6261189;23;20023;-89
2024/01/04 09:21:01;;;;;;;55.08;51.20;;;;;;;;;;6241868;23;20027;-89
2024/01/04 17:16:57;;;;;;;74.97;57.38;;;;;;;;;;6185883;22;20027;-88
2024/01/04 17:19:44;;;;;;;67.93;54.40;;;;;;;;;;6286742;22;20045;-89
2024/01/04 17:22:32;;;;;;;76.53;58.97;;;;;;;;;;6293104;22;20515;-89
2024/01/04 17:25:19;;;;;;;84.07;65.10;;;;;;;;;;6292454;22;20018;-89
2024/01/04 17:28:30;;;;;;;55.40;48.50;;;;;;;;;;6291637;22;20098;-89
2024/01/04 17:31:53;;;;;;;;;;;;;;;;;;;;;
2024/01/04 17:34:47;;;;;;;71.18;54.55;;;;;;;;;;6312756;22;20034;-88
2024/01/04 17:37:38;;;;;;;;;;;;;;;;;;6292010;22;20061;-89
2024/01/04 17:40:28;;;;;;;58.13;48.33;;;;;;;;;;6291215;22;19909;-88
2024/01/04 17:43:16;;;;;;;69.53;57.03;;;;;;;;;;6290682;22;20038;-87
2024/01/04 17:46:06;;;;;;;67.57;45.60;;;;;;;;;;6290095;22;20069;-89
2024/01/04 17:48:50;;;;;;;52.67;41.13;;;;;;;;;;6290756;22;20018;-88
2024/01/04 17:51:34;;;;;;;53.25;40.25;;;;;;;;;;6290116;22;20018;-88
2024/01/04 17:54:18;;;;;;;42.78;35.20;;;;;;;;;;6290270;22;20045;-92
2024/01/04 18:00:44;;;;;;;54.95;32.63;;;;;;;;;;6313672;22;20026;-88
2024/01/04 18:03:28;;;;;;;41.90;30.30;;;;;;;;;;6290222;22;20073;-91
2024/01/04 18:06:12;;;;;;;56.00;38.20;;;;;;;;;;6290864;22;20086;-89
2024/01/04 18:08:58;;;;;;;38.75;29.52;;;;;;;;;;6290531;22;20013;-89
2024/01/04 18:11:43;;;;;;;33.17;28.13;;;;;;;;;;6290366;22;20042;-88
2024/01/04 18:14:27;;;;;;;41.53;27.92;;;;;;;;;;6290065;22;20043;-88
2024/01/04 18:17:11;;;;;;;32.83;30.15;;;;;;;;;;6240452;22;20071;-89
2024/01/04 18:19:56;;;;;;;45.85;33.30;;;;;;;;;;6239822;22;20052;-88
2024/01/04 18:22:50;;;;;;;;;;;;;;;;;;;;;
2024/01/04 18:25:35;;;;;;;43.75;36.35;;;;;;;;;;6152690;23;20032;-87
2024/01/04 18:31:50;;;;;;;42.58;30.73;;;;;;;;;;6152995;23;20046;-89
2024/01/04 18:34:35;;;;;;;51.42;38.42;;;;;;;;;;6240379;22;20024;-88
2024/01/04 18:40:59;;;;;;;40.25;36.00;;;;;;;;;;6153099;23;20016;-88
2024/01/04 18:43:49;;;;;;;37.17;33.33;;;;;;;;;;6240549;22;20476;-89
2024/01/04 18:46:36;;;;;;;39.35;31.98;;;;;;;;;;6239923;22;20067;-88
2024/01/04 18:49:46;;;;;;;46.72;30.35;;;;;;;;;;6239969;22;20100;-90
2024/01/04 18:52:31;;;;;;;51.55;41.55;;;;;;;;;;6240773;22;20521;-88
2024/01/04 18:55:21;;;;;;;55.63;37.17;;;;;;;;;;6241727;22;20027;-87
2024/01/04 18:58:05;;;;;;;48.22;36.58;;;;;;;;;;6242081;22;20095;-88
2024/01/04 19:00:52;;;;;;;50.92;38.40;;;;;;;;;;6241264;22;20025;-90
2024/01/04 19:03:39;;;;;;;43.63;32.47;;;;;;;;;;6241830;22;20097;-87
2024/01/04 19:06:23;;;;;;;40.92;27.23;;;;;;;;;;6241757;22;20079;-89
2024/01/04 19:09:11;;;;;;;35.88;27.60;;;;;;;;;;6241930;22;20028;-88
2024/01/04 19:11:55;;;;;;;48.17;31.15;;;;;;;;;;6242457;22;20405;-88
2024/01/04 19:14:46;;;;;;;46.95;27.77;;;;;;;;;;6242191;22;20471;-88
2024/01/04 19:17:33;;;;;;;37.90;28.65;;;;;;;;;;6241016;22;20082;-87
2024/01/04 19:20:31;;;;;;;31.92;28.50;;;;;;;;;;6245448;22;20060;-87
2024/01/04 19:23:16;;;;;;;40.92;28.73;;;;;;;;;;6242641;22;20074;-87
2024/01/04 19:26:02;;;;;;;39.13;28.98;;;;;;;;;;6242535;22;20020;-90
2024/01/04 19:32:28;;;;;;;30.23;24.13;;;;;;;;;;6155286;23;20044;-88
2024/01/04 19:35:15;;;;;;;31.50;24.08;;;;;;;;;;6242564;22;20021;-89
2024/01/04 19:37:59;;;;;;;33.22;25.63;;;;;;;;;;6242107;22;20056;-89
2024/01/04 19:40:43;;;;;;;30.92;25.85;;;;;;;;;;6242088;22;20067;-88
2024/01/04 19:43:30;;;;;;;34.80;27.25;;;;;;;;;;6242282;22;20021;-87
2024/01/04 19:46:15;;;;;;;31.15;28.10;;;;;;;;;;6242381;22;20021;-89
2024/01/04 19:49:07;;;;;;;31.45;27.00;;;;;;;;;;6241835;22;20020;-89
2024/01/04 19:55:32;;;;;;;29.88;27.13;;;;;;;;;;6154513;23;20470;-87
2024/01/04 19:58:16;;;;;;;28.73;25.70;;;;;;;;;;6244841;22;20094;-87
2024/01/04 20:01:00;;;;;;;34.95;25.45;;;;;;;;;;6240631;22;20040;-88
2024/01/04 20:04:11;;;;;;;30.83;24.55;;;;;;;;;;6239770;22;20060;-89
2024/01/04 20:06:56;;;;;;;27.23;24.45;;;;;;;;;;6241071;22;20021;-92
2024/01/04 20:09:40;;;;;;;31.73;28.45;;;;;;;;;;6241238;22;20019;-86
2024/01/04 20:12:25;;;;;;;32.10;28.23;;;;;;;;;;6241865;22;20020;-91
2024/01/04 20:15:11;;;;;;;36.25;29.63;;;;;;;;;;6240840;22;20025;-89
2024/01/04 20:17:58;;;;;;;29.15;24.95;;;;;;;;;;6240309;22;20099;-87
2024/01/04 20:21:03;;;;;;;27.65;24.35;;;;;;;;;;6241592;22;20474;-89
2024/01/04 20:23:48;;;;;;;28.17;25.35;;;;;;;;;;6239214;22;20033;-88
2024/01/04 20:26:36;;;;;;;28.02;25.08;;;;;;;;;;6240533;22;20075;-89
2024/01/04 20:29:20;;;;;;;28.77;25.95;;;;;;;;;;6240618;22;20390;-88
2024/01/04 20:32:04;;;;;;;30.75;27.50;;;;;;;;;;6240698;22;20016;-87
2024/01/04 20:34:59;;;;;;;;;;;;;;;;;;;;;
2024/01/04 20:37:51;;;;;;;35.03;29.90;;;;;;;;;;6153002;23;20455;-87
2024/01/04 20:40:36;;;;;;;33.47;30.30;;;;;;;;;;6240510;22;20020;-89
2024/01/04 20:43:23;;;;;;;35.63;32.38;;;;;;;;;;6239984;22;20040;-87
2024/01/04 20:46:08;;;;;;;34.28;30.77;;;;;;;;;;6241565;22;20040;-88
2024/01/04 20:48:52;;;;;;;33.28;30.50;;;;;;;;;;6240760;22;20016;-86
2024/01/04 20:51:37;;;;;;;35.42;31.70;;;;;;;;;;6241223;22;20098;-89
2024/01/04 20:54:36;;;;;;;33.60;30.27;;;;;;;;;;6241182;22;20025;-90
2024/01/04 20:57:23;;;;;;;31.77;29.30;;;;;;;;;;6241283;22;20049;-89
2024/01/04 21:00:11;;;;;;;31.58;28.60;;;;;;;;;;6242089;22;20032;-87
2024/01/04 21:02:55;;;;;;;37.88;29.17;;;;;;;;;;6241753;22;20463;-87
2024/01/04 21:05:42;;;;;;;32.70;29.75;;;;;;;;;;6241073;22;20074;-87
2024/01/04 21:08:35;;;;;;;41.90;36.30;;;;;;;;;;6240794;22;20082;-89
2024/01/04 21:11:19;;;;;;;41.88;32.17;;;;;;;;;;6240379;22;20032;-87
2024/01/04 21:14:04;;;;;;;36.97;33.90;;;;;;;;;;6240497;22;20020;-89
2024/01/04 21:16:57;;;;;;;35.50;32.30;;;;;;;;;;6285283;22;20022;-89
2024/01/04 21:19:41;;;;;;;38.88;32.55;;;;;;;;;;6284824;22;20014;-86
2024/01/04 21:22:26;;;;;;;33.85;31.05;;;;;;;;;;6285114;22;20049;-87
2024/01/04 21:25:10;;;;;;;34.85;31.67;;;;;;;;;;6284412;22;20106;-88
2024/01/04 21:27:54;;;;;;;32.08;28.75;;;;;;;;;;6284822;22;20050;-87
2024/01/04 21:30:40;;;;;;;32.67;28.95;;;;;;;;;;6307681;22;20073;-89
2024/01/04 21:33:24;;;;;;;31.15;27.80;;;;;;;;;;6284848;22;20062;-89
2024/01/04 21:43:04;;;;;;;31.65;28.80;;;;;;;;;;6307787;22;20018;-87
2024/01/04 21:45:48;;;;;;;34.60;31.15;;;;;;;;;;6285041;22;20018;-87
2024/01/04 21:48:39;;;;;;;31.85;28.52;;;;;;;;;;6307242;22;20141;-87
2024/01/04 21:51:39;;;;;;;39.78;31.40;;;;;;;;;;6284552;22;20062;-87
2024/01/04 21:54:23;;;;;;;32.05;28.95;;;;;;;;;;6284718;22;20072;-88
2024/01/04 21:57:09;;;;;;;34.58;31.83;;;;;;;;;;6284686;22;20076;-88
2024/01/04 21:59:55;;;;;;;34.58;31.05;;;;;;;;;;6283895;22;20018;-87
2024/01/04 22:06:03;;;;;;;35.65;31.38;;;;;;;;;;6307771;22;20248;-90
2024/01/04 22:08:47;;;;;;;39.08;29.88;;;;;;;;;;6284744;22;20338;-88
2024/01/04 22:11:31;;;;;;;34.40;30.90;;;;;;;;;;6284312;22;20058;-88
2024/01/04 22:14:40;;;;;;;33.50;30.27;;;;;;;;;;6284271;22;20022;-87
2024/01/04 22:17:40;;;;;;;38.17;31.65;;;;;;;;;;5415094;22;20013558;-89
2024/01/04 22:20:27;;;;;;;42.33;32.35;;;;;;;;;;6286147;22;20022;-88
2024/01/04 22:23:20;;;;;;;45.80;34.55;;;;;;;;;;6285912;22;20040;-88
2024/01/04 22:26:20;;;;;;;46.20;34.65;;;;;;;;;;6286204;22;20015;-88
2024/01/04 22:29:05;;;;;;;44.85;35.35;;;;;;;;;;6287879;22;20084;-88
2024/01/04 22:31:57;;;;;;;40.20;35.17;;;;;;;;;;6287840;22;20044;-90
2024/01/04 22:34:56;;;;;;;46.85;34.97;;;;;;;;;;6288212;22;20017;-88
2024/01/04 22:37:45;;;;;;;51.95;35.83;;;;;;;;;;6288919;22;20026;-91
2024/01/04 22:40:28;;;;;;;54.13;37.85;;;;;;;;;;6287792;22;20495;-89
2024/01/04 22:43:12;;;;;;;52.38;36.22;;;;;;;;;;6287161;22;20022;-87
2024/01/04 22:45:58;;;;;;;40.65;35.60;;;;;;;;;;6287153;22;20336;-88
2024/01/04 22:48:51;;;;;;;54.00;37.25;;;;;;;;;;6286654;22;20064;-87
2024/01/04 22:51:36;;;;;;;56.03;36.78;;;;;;;;;;6287053;22;20015;-87
2024/01/04 22:54:20;;;;;;;62.63;37.70;;;;;;;;;;6287109;22;20022;-88
2024/01/04 22:57:04;;;;;;;44.08;38.15;;;;;;;;;;6287226;22;20519;-91
2024/01/04 22:59:50;;;;;;;52.53;38.05;;;;;;;;;;6287399;22;20067;-89
2024/01/04 23:02:36;;;;;;;46.60;38.38;;;;;;;;;;6287138;22;20065;-88
2024/01/04 23:05:20;;;;;;;58.80;37.65;;;;;;;;;;6310163;22;20014;-88
2024/01/04 23:08:04;;;;;;;49.15;38.08;;;;;;;;;;6287346;22;20081;-87
2024/01/04 23:10:48;;;;;;;51.92;39.90;;;;;;;;;;6287036;22;20120;-88
2024/01/04 23:13:33;;;;;;;49.95;40.28;;;;;;;;;;6286968;22;20460;-87
2024/01/04 23:16:17;;;;;;;52.92;38.13;;;;;;;;;;6287197;22;20484;-88
2024/01/04 23:22:25;;;;;;;62.13;40.05;;;;;;;;;;6123838;23;20024;-88
2024/01/04 23:25:09;;;;;;;53.55;40.03;;;;;;;;;;6210342;23;20021;-88
2024/01/04 23:27:53;;;;;;;60.90;39.05;;;;;;;;;;6210537;23;20348;-87
2024/01/04 23:30:37;;;;;;;51.70;39.83;;;;;;;;;;6124014;23;20017;-87
2024/01/04 23:33:21;;;;;;;49.83;40.50;;;;;;;;;;6210167;23;20075;-88
2024/01/04 23:36:05;;;;;;;53.83;39.95;;;;;;;;;;6210550;23;20025;-89
2024/01/04 23:38:49;;;;;;;53.40;40.63;;;;;;;;;;6210166;23;20021;-88
2024/01/04 23:41:33;;;;;;;47.85;39.42;;;;;;;;;;6210444;23;20067;-91
2024/01/04 23:44:17;;;;;;;61.17;41.08;;;;;;;;;;6124021;23;20025;-88
2024/01/04 23:47:02;;;;;;;66.20;40.17;;;;;;;;;;6210751;23;20333;-89
2024/01/04 23:49:46;;;;;;;67.53;39.75;;;;;;;;;;6209613;23;20017;-89
2024/01/04 23:52:30;;;;;;;56.80;36.30;;;;;;;;;;6124024;23;20071;-88
2024/01/04 23:55:14;;;;;;;67.45;36.67;;;;;;;;;;6212849;23;20028;-89
2024/01/04 23:58:00;;;;;;;72.18;35.03;;;;;;;;;;6214687;23;20063;-88
